• Join FlightAware (Why Join?)
  • Login
  • US Flag 
10:20AM EDT


 

Airport Tracker/Info


-or-


 

Live Flight TrackerFlight Track Log ✈ SWA1929 ✈ 01-May-2012 ✈ KFLL - KTPA

Flight Track Log - Related Links

Times and Time Zones

All times are in EDT time to prevent confusion due to time zone crossing. See the SWA1929 flight status page for this flight to view local times or setup timezone preferences in your user account.

Time Position Orientation Groundspeed Altitude Reporting Facility
EDT Latitude Longitude Course Direction KTS MPH feet Rate Location/Type
06:48PM 26.0747 -80.1436 62° Northeast 154 177 900  Level Miami Center
06:49PM 26.1033 -80.0842 324° Northwest 217 250 4,200 2,940 Climbing Miami Center
06:50PM 26.1567 -80.1272 328° Northwest 277 319 7,300 3,300 Climbing Miami Center
06:51PM 26.2286 -80.1781 287° West 293 337 10,800 1,980 Climbing Miami Center
06:52PM 26.2536 -80.2714 278° West 305 351 11,300 1,140 Climbing Miami Center
06:53PM 26.2675 -80.3853 278° West 319 367 13,100 2,580 Climbing Miami Center
06:54PM 26.2817 -80.4944 290° West 350 403 16,500 3,000 Climbing Miami Center
06:55PM 26.3144 -80.5975 308° West 355 409 19,200 2,700 Climbing Miami Center
06:56PM 26.3769 -80.6853 305° West 355 409 22,000 1,380 Climbing Miami Center
06:57PM 26.4350 -80.7775 305° West 363 418 22,000  Level Miami Center
06:58PM 26.4931 -80.8700 305° West 363 418 22,000  Level Miami Center
06:59PM 26.5492 -80.9600 307° West 363 418 22,000  Level Miami Center
07:00PM 26.6053 -81.0433 307° West 363 418 22,000  Level Miami Center
07:01PM 26.6653 -81.1339 305° West 363 418 22,000  Level Miami Center
07:02PM 26.7289 -81.2361 306° West 363 418 22,000  Level Miami Center
07:03PM 26.7889 -81.3292 308° West 369 425 22,000  Level Miami Center
07:04PM 26.8508 -81.4175 313° West 363 418 22,000  Level Miami Center
07:05PM 26.9131 -81.4922 314° West 363 418 22,000  Level Miami Center
07:06PM 26.9836 -81.5742 314° West 363 418 22,000 -60 Level Miami Center
07:07PM 27.0619 -81.6658 313° West 363 418 21,900 -900 Descending Miami Center
07:08PM 27.1303 -81.7481 314° West 363 418 20,300 -1,800 Descending Miami Center
07:09PM 27.1964 -81.8256 311° West 350 403 18,400 -1,860 Descending Miami Center
07:10PM 27.2603 -81.9078 314° West 358 412 16,600 -1,860 Descending Miami Center
07:11PM 27.3264 -81.9853 314° West 344 396 14,700 -1,920 Descending Miami Center
07:12PM 27.3906 -82.0608 314° West 344 396 12,800 -1,860 Descending Miami Center
07:13PM 27.4567 -82.1386 313° West 339 390 11,000 -900 Descending Miami Center
07:14PM 27.5206 -82.2164 314° West 339 390 11,000 -540 Level Miami Center
07:15PM 27.5825 -82.2894 313° West 320 368 10,000 -1,200 Descending Miami Center
07:16PM 27.6403 -82.3603 320° Northwest 325 374 8,600 -1,440 Descending Miami Center
07:17PM 27.7047 -82.4219 North 315 362 7,200 -1,440 Descending Miami Center
07:18PM 27.7839 -82.4211 North 278 320 5,800 -1,140 Descending Miami Center
07:19PM 27.8594 -82.4153 359° North 273 314 5,000 -420 Descending Miami Center
07:20PM 27.9333 -82.4167 360° North 240 276 5,000 -60 Level Tampa TRACON
07:21PM 28.0000 -82.4167 360° North 232 267 4,900 -600 Descending Tampa TRACON
07:22PM 28.0667 -82.4167 360° North 214 246 3,900 -960 Descending Tampa TRACON
07:23PM 28.1167 -82.4167 307° West 205 236 3,000 -420 Descending Tampa TRACON
07:24PM 28.1500 -82.4667 240° Southwest 226 260 3,100 -420 Climbing Tampa TRACON
07:26PM 28.1167 -82.5333 180° South 210 242 2,200 -780 Descending Tampa TRACON
07:27PM 28.0667 -82.5333 180° South 184 212 1,400 -840 Descending Tampa TRACON
07:28PM 28.0167 -82.5333 180° South 148 170 600 -840 Descending Tampa TRACON